Oceanis — SVBC9 — position and weather

sailwx.info

Track history (hours):
 
Tides and Currents Weather Stations Pressure Air Temp Water Temp Dewpoint Dewpoint Depression Visibility Wind Speed Wind Dir Waves Ship Positions

Oceanis

Last reported at 2017-Apr-26 01:54 UTC. Time now 2017-Apr-27 14:50 UTC.
Position S 06°25' E 010°50'.

Length 330 m; draft 19.4 m.

Type: Tanker. MMSI: 241089000.

Date/timePositionNaut miles runAvg speedWind from/ knotsBaromVisibWave heightAir tempDewpointWater temp
2017-Apr-26 01:54S 06°25' E 010°50'614.9
2017-Apr-26 01:30S 06°20' E 010°53'713.1
2017-Apr-26 00:58S 06°14' E 010°57'8 0.2
2017-Apr-24 11:58S 06°08' E 011°02'0 0.7
2017-Apr-24 11:26S 06°08' E 011°01'1 2.2
2017-Apr-24 10:52S 06°07' E 011°00'1 2.7
2017-Apr-24 10:24S 06°06' E 010°60'12 0.3
2017-Apr-22 20:33S 05°59' E 011°09'0 0.3
2017-Apr-22 20:30S 05°59' E 011°09'2 0.2
2017-Apr-22 09:52S 05°57' E 011°07'0 0.4
2017-Apr-22 09:30S 05°57' E 011°07'0 0.2
2017-Apr-22 09:00S 05°57' E 011°07'1 1.0
2017-Apr-22 08:30S 05°57' E 011°07'3 6.2
2017-Apr-22 08:00S 05°60' E 011°09'3 0.2
2017-Apr-21 16:02S 05°60' E 011°06'0 0.6
2017-Apr-21 16:00S 05°60' E 011°06'0 0.5
2017-Apr-21 15:29S 05°59' E 011°07'0 0.4
2017-Apr-21 15:00S 05°59' E 011°07'0 0.4
2017-Apr-21 13:58S 05°59' E 011°07'2 0.4
2017-Apr-21 07:50S 06°01' E 011°05'1 0.6
2017-Apr-21 06:57S 06°00' E 011°05'0 0.4
2017-Apr-21 06:28S 06°00' E 011°05'0 0.4
2017-Apr-21 06:00S 06°00' E 011°05'0 0.4
2017-Apr-21 05:30S 06°00' E 011°06'0 0.3
2017-Apr-21 05:00S 06°00' E 011°06'2 0.3
2017-Apr-20 23:41S 06°01' E 011°07'0 0.6
2017-Apr-20 23:28S 06°01' E 011°07'2 1.1
2017-Apr-20 21:31S 05°59' E 011°07'1 3.4
2017-Apr-20 21:15S 05°58' E 011°07'0 0.6
2017-Apr-20 21:00S 05°58' E 011°07'1 0.5
2017-Apr-20 18:58S 05°59' E 011°07'0 0.6
2017-Apr-20 18:30S 05°60' E 011°07'1 0.2
2017-Apr-20 15:38S 05°59' E 011°07'1 0.5
2017-Apr-20 13:15S 05°58' E 011°06'0 0.8
2017-Apr-20 12:40S 05°59' E 011°06'1 0.7
2017-Apr-20 11:20S 05°59' E 011°07'1 0.2
2017-Apr-20 02:33S 05°60' E 011°06'0 0.7
2017-Apr-20 02:30S 05°60' E 011°06'0 0.7
2017-Apr-20 02:00S 05°60' E 011°06'0 0.6
2017-Apr-20 01:30S 06°00' E 011°06'1 0.1
2017-Apr-19 10:38S 06°01' E 011°07'0 0.6
2017-Apr-19 10:30S 06°01' E 011°07'0 0.5
2017-Apr-19 10:00S 06°01' E 011°07'0 0.5
2017-Apr-19 09:19S 06°01' E 011°07'0 0.5
2017-Apr-19 08:22S 06°01' E 011°07'3 6.8
2017-Apr-19 07:53S 05°58' E 011°07'3 0.2
2017-Apr-18 15:09S 06°01' E 011°07'0 0.5
2017-Apr-18 14:56S 06°01' E 011°07'1 0.2
2017-Apr-18 05:22S 05°60' E 011°08'0 0.6
2017-Apr-18 04:59S 05°60' E 011°08'0 0.5
2017-Apr-18 04:30S 06°00' E 011°08'0 0.4
2017-Apr-18 03:59S 06°00' E 011°08'0 0.3
2017-Apr-18 03:27S 06°00' E 011°08'0 0.6
2017-Apr-18 02:59S 06°01' E 011°08'0 0.6
2017-Apr-18 02:19S 06°01' E 011°08'0 0.4
2017-Apr-18 02:00S 06°01' E 011°08'1 0.7
2017-Apr-18 01:14S 06°01' E 011°08'2 6.3
2017-Apr-18 00:58S 05°59' E 011°08'3 2.3
2017-Apr-17 23:53S 05°56' E 011°07'0 0.6
2017-Apr-17 23:30S 05°57' E 011°07'0 0.6
2017-Apr-17 22:41S 05°57' E 011°08'0 0.5
2017-Apr-17 22:29S 05°57' E 011°08'0 0.5
2017-Apr-17 21:58S 05°57' E 011°08'0 0.6
2017-Apr-17 21:21S 05°58' E 011°08'0 0.5
2017-Apr-17 20:57S 05°58' E 011°08'0 0.5
2017-Apr-17 20:30S 05°58' E 011°08'0 0.6
2017-Apr-17 19:48S 05°59' E 011°08'3 0.4
2017-Apr-17 11:45S 05°56' E 011°06'0 0.5
2017-Apr-17 11:19S 05°56' E 011°06'0 0.5
2017-Apr-17 11:00S 05°56' E 011°06'0 0.4
2017-Apr-17 10:30S 05°56' E 011°06'0 0.4
2017-Apr-17 09:51S 05°57' E 011°06'0 0.3
2017-Apr-17 09:28S 05°57' E 011°06'0 0.4
2017-Apr-17 09:00S 05°57' E 011°06'1 0.3
2017-Apr-17 05:17S 05°58' E 011°07'0 0.4
2017-Apr-17 04:59S 05°58' E 011°07'0 0.5
2017-Apr-17 04:30S 05°58' E 011°07'45 8.7
2017-Apr-16 23:20S 05°19' E 010°44'  
Track history (hours):
 
Tides and Currents Weather Stations Pressure Air Temp Water Temp Dewpoint Dewpoint Depression Visibility Wind Speed Wind Dir Waves Ship Positions

Oceanis

Last reported at 2017-Apr-26 01:54 UTC. Time now 2017-Apr-27 14:50 UTC.
Position S 06°25' E 010°50'.

Length 330 m; draft 19.4 m.

Type: Tanker. MMSI: 241089000.

Date/timePositionNaut miles runAvg speedWind from/ knotsBaromVisibWave heightAir tempDewpointWater temp
2017-Apr-26 01:54S 06°25' E 010°50'614.9
2017-Apr-26 01:30S 06°20' E 010°53'713.1
2017-Apr-26 00:58S 06°14' E 010°57'8 0.2
2017-Apr-24 11:58S 06°08' E 011°02'0 0.7
2017-Apr-24 11:26S 06°08' E 011°01'1 2.2
2017-Apr-24 10:52S 06°07' E 011°00'1 2.7
2017-Apr-24 10:24S 06°06' E 010°60'12 0.3
2017-Apr-22 20:33S 05°59' E 011°09'0 0.3
2017-Apr-22 20:30S 05°59' E 011°09'2 0.2
2017-Apr-22 09:52S 05°57' E 011°07'0 0.4
2017-Apr-22 09:30S 05°57' E 011°07'0 0.2
2017-Apr-22 09:00S 05°57' E 011°07'1 1.0
2017-Apr-22 08:30S 05°57' E 011°07'3 6.2
2017-Apr-22 08:00S 05°60' E 011°09'3 0.2
2017-Apr-21 16:02S 05°60' E 011°06'0 0.6
2017-Apr-21 16:00S 05°60' E 011°06'0 0.5
2017-Apr-21 15:29S 05°59' E 011°07'0 0.4
2017-Apr-21 15:00S 05°59' E 011°07'0 0.4
2017-Apr-21 13:58S 05°59' E 011°07'2 0.4
2017-Apr-21 07:50S 06°01' E 011°05'1 0.6
2017-Apr-21 06:57S 06°00' E 011°05'0 0.4
2017-Apr-21 06:28S 06°00' E 011°05'0 0.4
2017-Apr-21 06:00S 06°00' E 011°05'0 0.4
2017-Apr-21 05:30S 06°00' E 011°06'0 0.3
2017-Apr-21 05:00S 06°00' E 011°06'2 0.3
2017-Apr-20 23:41S 06°01' E 011°07'0 0.6
2017-Apr-20 23:28S 06°01' E 011°07'2 1.1
2017-Apr-20 21:31S 05°59' E 011°07'1 3.4
2017-Apr-20 21:15S 05°58' E 011°07'0 0.6
2017-Apr-20 21:00S 05°58' E 011°07'1 0.5
2017-Apr-20 18:58S 05°59' E 011°07'0 0.6
2017-Apr-20 18:30S 05°60' E 011°07'1 0.2
2017-Apr-20 15:38S 05°59' E 011°07'1 0.5
2017-Apr-20 13:15S 05°58' E 011°06'0 0.8
2017-Apr-20 12:40S 05°59' E 011°06'1 0.7
2017-Apr-20 11:20S 05°59' E 011°07'1 0.2
2017-Apr-20 02:33S 05°60' E 011°06'0 0.7
2017-Apr-20 02:30S 05°60' E 011°06'0 0.7
2017-Apr-20 02:00S 05°60' E 011°06'0 0.6
2017-Apr-20 01:30S 06°00' E 011°06'1 0.1
2017-Apr-19 10:38S 06°01' E 011°07'0 0.6
2017-Apr-19 10:30S 06°01' E 011°07'0 0.5
2017-Apr-19 10:00S 06°01' E 011°07'0 0.5
2017-Apr-19 09:19S 06°01' E 011°07'0 0.5
2017-Apr-19 08:22S 06°01' E 011°07'3 6.8
2017-Apr-19 07:53S 05°58' E 011°07'3 0.2
2017-Apr-18 15:09S 06°01' E 011°07'0 0.5
2017-Apr-18 14:56S 06°01' E 011°07'1 0.2
2017-Apr-18 05:22S 05°60' E 011°08'0 0.6
2017-Apr-18 04:59S 05°60' E 011°08'0 0.5
2017-Apr-18 04:30S 06°00' E 011°08'0 0.4
2017-Apr-18 03:59S 06°00' E 011°08'0 0.3
2017-Apr-18 03:27S 06°00' E 011°08'0 0.6
2017-Apr-18 02:59S 06°01' E 011°08'0 0.6
2017-Apr-18 02:19S 06°01' E 011°08'0 0.4
2017-Apr-18 02:00S 06°01' E 011°08'1 0.7
2017-Apr-18 01:14S 06°01' E 011°08'2 6.3
2017-Apr-18 00:58S 05°59' E 011°08'3 2.3
2017-Apr-17 23:53S 05°56' E 011°07'0 0.6
2017-Apr-17 23:30S 05°57' E 011°07'0 0.6
2017-Apr-17 22:41S 05°57' E 011°08'0 0.5
2017-Apr-17 22:29S 05°57' E 011°08'0 0.5
2017-Apr-17 21:58S 05°57' E 011°08'0 0.6
2017-Apr-17 21:21S 05°58' E 011°08'0 0.5
2017-Apr-17 20:57S 05°58' E 011°08'0 0.5
2017-Apr-17 20:30S 05°58' E 011°08'0 0.6
2017-Apr-17 19:48S 05°59' E 011°08'3 0.4
2017-Apr-17 11:45S 05°56' E 011°06'0 0.5
2017-Apr-17 11:19S 05°56' E 011°06'0 0.5
2017-Apr-17 11:00S 05°56' E 011°06'0 0.4
2017-Apr-17 10:30S 05°56' E 011°06'0 0.4
2017-Apr-17 09:51S 05°57' E 011°06'0 0.3
2017-Apr-17 09:28S 05°57' E 011°06'0 0.4
2017-Apr-17 09:00S 05°57' E 011°06'1 0.3
2017-Apr-17 05:17S 05°58' E 011°07'0 0.4
2017-Apr-17 04:59S 05°58' E 011°07'0 0.5
2017-Apr-17 04:30S 05°58' E 011°07'45 8.7
2017-Apr-16 23:20S 05°19' E 010°44'  

Dump ship's entire track history